createdAt,value
2022-12-05T00:01:00.506Z,5.60
2022-12-05T00:03:27.048Z,5.05
2022-12-05T00:05:53.604Z,5.60
2022-12-05T00:08:20.196Z,4.95
2022-12-05T00:10:46.793Z,5.10
2022-12-05T00:13:13.323Z,5.35
2022-12-05T00:15:40.603Z,5.57
2022-12-05T00:18:07.822Z,5.53
2022-12-05T00:20:34.420Z,5.30
2022-12-05T00:23:01.047Z,5.57
2022-12-05T00:25:27.711Z,4.35
2022-12-05T00:27:54.435Z,5.10
2022-12-05T00:30:20.965Z,4.65
2022-12-05T00:32:47.598Z,5.25
2022-12-05T00:35:14.148Z,4.75
2022-12-05T00:37:40.855Z,4.78
2022-12-05T00:40:07.918Z,4.80
2022-12-05T00:42:34.444Z,4.93
2022-12-05T00:45:00.920Z,5.28
2022-12-05T00:47:27.484Z,5.15
2022-12-05T00:49:54.044Z,4.95
2022-12-05T00:52:22.651Z,4.95
2022-12-05T00:54:49.163Z,4.97
2022-12-05T00:57:15.708Z,4.53
2022-12-05T00:59:42.213Z,4.40
2022-12-05T01:02:08.814Z,4.80
2022-12-05T01:04:35.450Z,4.70
2022-12-05T01:07:02.104Z,4.55
2022-12-05T01:09:28.879Z,5.15
2022-12-05T01:11:55.624Z,4.10
2022-12-05T01:14:25.990Z,4.43
2022-12-05T01:16:54.598Z,4.30
2022-12-05T01:19:24.325Z,3.70
2022-12-05T01:21:50.868Z,4.30
2022-12-05T01:24:18.524Z,4.28
2022-12-05T01:26:46.084Z,3.78
2022-12-05T01:29:14.637Z,3.95
2022-12-05T01:31:41.530Z,4.07
2022-12-05T01:34:11.902Z,4.47
2022-12-05T01:36:39.416Z,3.70
2022-12-05T01:39:07.451Z,3.50
2022-12-05T01:41:37.402Z,3.42
2022-12-05T01:44:28.018Z,3.63
2022-12-05T01:46:55.517Z,3.90
2022-12-05T01:49:37.887Z,4.25
2022-12-05T01:52:10.769Z,3.67
2022-12-05T01:54:38.004Z,3.53
2022-12-05T01:57:07.318Z,3.65
2022-12-05T01:59:36.901Z,3.85
2022-12-05T02:04:30.454Z,5.00
2022-12-05T02:06:57.083Z,4.97
2022-12-05T02:09:23.850Z,4.35
2022-12-05T02:11:56.215Z,3.78
2022-12-05T02:14:36.981Z,3.00
2022-12-05T02:17:09.403Z,2.97
2022-12-05T02:20:05.018Z,2.58
2022-12-05T02:22:54.538Z,2.92
2022-12-05T02:27:58.969Z,3.47
2022-12-05T02:30:28.062Z,3.85
2022-12-05T02:33:19.370Z,3.03
2022-12-05T02:36:11.960Z,4.43
2022-12-05T02:39:23.350Z,4.43
2022-12-05T02:42:14.173Z,4.43
2022-12-05T02:45:10.095Z,4.13
2022-12-05T02:47:40.820Z,3.83
2022-12-05T02:50:09.412Z,4.00
2022-12-05T02:52:36.193Z,3.75
2022-12-05T02:55:03.583Z,3.83
2022-12-05T02:57:30.661Z,4.22
2022-12-05T02:59:57.448Z,4.55
2022-12-05T03:02:27.369Z,3.50
2022-12-05T03:04:56.349Z,3.80
2022-12-05T03:07:23.818Z,3.85
2022-12-05T03:09:57.115Z,3.97
2022-12-05T03:12:29.414Z,3.05
2022-12-05T03:15:01.231Z,3.35
2022-12-05T03:17:32.215Z,3.13
2022-12-05T03:20:04.875Z,2.97
2022-12-05T03:22:53.805Z,2.60
2022-12-05T03:25:24.075Z,2.65
2022-12-05T03:28:01.567Z,2.88
2022-12-05T03:30:28.261Z,2.67
2022-12-05T03:33:05.383Z,2.78
2022-12-05T03:35:40.506Z,2.22
2022-12-05T03:38:15.974Z,2.63
2022-12-05T03:41:30.575Z,3.38
2022-12-05T03:44:08.695Z,3.80
2022-12-05T03:46:41.189Z,3.50
2022-12-05T03:49:07.691Z,2.58
2022-12-05T03:51:37.827Z,2.17
2022-12-05T03:54:30.684Z,2.17
2022-12-05T03:57:02.977Z,1.90
2022-12-05T03:59:37.415Z,1.60
2022-12-05T04:02:08.910Z,1.60
2022-12-05T04:04:39.532Z,1.05
2022-12-05T04:07:07.459Z,1.13
2022-12-05T04:09:42.197Z,0.85
2022-12-05T04:12:15.007Z,0.80
2022-12-05T04:14:44.540Z,1.00
2022-12-05T04:20:16.863Z,1.08
2022-12-05T04:22:44.030Z,0.98
2022-12-05T04:25:31.680Z,0.90
2022-12-05T04:28:21.394Z,0.73
2022-12-05T04:31:06.442Z,0.90
2022-12-05T04:33:41.746Z,1.20
2022-12-05T04:36:15.963Z,1.10
2022-12-05T04:38:48.353Z,1.08
2022-12-05T04:41:19.544Z,0.90
2022-12-05T04:43:47.578Z,0.77
2022-12-05T04:46:16.856Z,0.60
2022-12-05T04:48:45.950Z,0.40
2022-12-05T04:51:17.094Z,0.40
2022-12-05T04:53:44.862Z,0.57
2022-12-05T04:56:12.193Z,1.00
2022-12-05T04:58:38.715Z,1.00
2022-12-05T05:01:19.784Z,1.10
2022-12-05T05:03:55.482Z,0.73
2022-12-05T05:06:22.127Z,0.50
2022-12-05T05:08:54.318Z,0.57
2022-12-05T05:11:26.643Z,0.60
2022-12-05T05:13:53.674Z,0.50
2022-12-05T05:16:31.904Z,0.95
2022-12-05T05:18:58.477Z,0.90
2022-12-05T05:21:27.160Z,0.70
2022-12-05T05:23:54.413Z,0.70
2022-12-05T05:26:21.349Z,0.70
2022-12-05T05:28:48.515Z,0.52
2022-12-05T05:31:15.642Z,0.50
2022-12-05T05:33:42.255Z,0.43
2022-12-05T05:36:11.674Z,0.30
2022-12-05T05:38:46.571Z,0.30
2022-12-05T05:41:18.279Z,0.20
2022-12-05T05:43:45.443Z,0.30
2022-12-05T05:46:12.892Z,0.80
2022-12-05T05:48:39.812Z,1.58
2022-12-05T05:51:08.165Z,1.70
2022-12-05T05:53:35.113Z,1.70
2022-12-05T05:56:09.835Z,1.30
2022-12-05T05:58:36.738Z,0.90
2022-12-05T06:01:21.659Z,0.90
2022-12-05T06:03:48.958Z,1.50
2022-12-05T06:06:15.970Z,1.65
2022-12-05T06:08:43.967Z,1.80
2022-12-05T06:11:25.241Z,1.88
2022-12-05T06:13:54.547Z,1.50
2022-12-05T06:16:21.561Z,0.68
2022-12-05T06:18:49.819Z,0.60
2022-12-05T06:21:17.047Z,0.40
2022-12-05T06:23:43.939Z,0.40
2022-12-05T06:26:12.723Z,0.47
2022-12-05T06:28:39.701Z,0.93
2022-12-05T06:31:17.935Z,1.30
2022-12-05T06:33:44.997Z,1.42
2022-12-05T06:36:16.786Z,1.40
2022-12-05T06:38:43.309Z,0.82
2022-12-05T06:41:14.178Z,0.60
2022-12-05T06:43:41.308Z,0.90
2022-12-05T06:46:09.497Z,1.60
2022-12-05T06:48:36.236Z,1.50
2022-12-05T06:51:02.874Z,1.40
2022-12-05T06:53:29.433Z,1.70
2022-12-05T06:56:00.719Z,1.95
2022-12-05T06:58:27.732Z,2.20
2022-12-05T07:01:15.907Z,1.98
2022-12-05T07:03:44.343Z,2.17
2022-12-05T07:06:11.286Z,1.30
2022-12-05T07:08:38.145Z,1.20
2022-12-05T07:11:05.011Z,1.70
2022-12-05T07:13:31.510Z,2.08
2022-12-05T07:15:59.000Z,2.45
2022-12-05T07:18:26.698Z,2.20
2022-12-05T07:21:16.810Z,2.00
2022-12-05T07:23:45.203Z,1.80
2022-12-05T07:26:18.007Z,1.50
2022-12-05T07:28:44.546Z,1.23
2022-12-05T07:31:13.515Z,0.80
2022-12-05T07:33:40.341Z,0.52
2022-12-05T07:36:09.420Z,0.60
2022-12-05T07:38:36.910Z,0.50
2022-12-05T07:41:23.235Z,0.45
2022-12-05T07:43:54.105Z,0.20
2022-12-05T07:46:21.197Z,0.10
2022-12-05T07:48:48.297Z,0.20
2022-12-05T07:51:14.796Z,0.10
2022-12-05T07:53:43.791Z,0.30
2022-12-05T07:56:14.318Z,0.22
2022-12-05T07:58:40.840Z,0.70
2022-12-05T08:01:11.788Z,1.60
2022-12-05T08:03:38.586Z,2.60
2022-12-05T08:06:11.400Z,3.05
2022-12-05T08:08:38.294Z,3.92
2022-12-05T08:11:12.957Z,3.28
2022-12-05T08:13:39.720Z,3.50
2022-12-05T08:16:09.337Z,3.13
2022-12-05T08:18:35.927Z,2.78
2022-12-05T08:21:08.055Z,2.80
2022-12-05T08:23:35.253Z,3.33
2022-12-05T08:26:04.049Z,2.80
2022-12-05T08:28:30.744Z,2.00
2022-12-05T08:31:06.552Z,1.65
2022-12-05T08:33:33.362Z,1.20
2022-12-05T08:36:10.753Z,0.90
2022-12-05T08:38:37.382Z,0.60
2022-12-05T08:41:09.487Z,0.45
2022-12-05T08:43:36.550Z,0.40
2022-12-05T08:46:03.276Z,0.20
2022-12-05T08:48:30.687Z,0.17
2022-12-05T08:51:00.243Z,0.10
2022-12-05T08:55:53.187Z,0.15
2022-12-05T08:58:19.746Z,0.10
2022-12-05T09:00:46.283Z,0.10
2022-12-05T09:03:13.058Z,0.17
2022-12-05T09:05:39.568Z,0.15
2022-12-05T09:08:06.169Z,0.20
2022-12-05T09:10:32.777Z,0.20
2022-12-05T09:12:59.497Z,0.10
2022-12-05T09:15:26.289Z,0.10
2022-12-05T09:17:55.888Z,0.20
2022-12-05T09:22:48.900Z,0.35
2022-12-05T09:25:15.410Z,0.40
2022-12-05T09:27:41.990Z,0.68
2022-12-05T09:30:09.312Z,1.30
2022-12-05T09:32:35.879Z,1.38
2022-12-05T09:35:02.670Z,0.70
2022-12-05T09:37:42.973Z,1.17
2022-12-05T09:40:16.503Z,1.17
2022-12-05T09:42:55.087Z,1.00
2022-12-05T09:45:26.345Z,0.93
2022-12-05T09:48:12.768Z,0.80
2022-12-05T09:50:47.108Z,0.68
2022-12-05T09:53:30.675Z,0.88
2022-12-05T09:56:09.498Z,0.50
2022-12-05T09:58:38.775Z,0.70
2022-12-05T10:01:23.201Z,0.60
2022-12-05T10:04:01.790Z,0.50
2022-12-05T10:06:37.079Z,0.73
2022-12-05T10:09:26.856Z,0.80
2022-12-05T10:12:15.749Z,3.47
2022-12-05T10:15:00.814Z,4.78
2022-12-05T10:17:33.636Z,2.17
2022-12-05T10:20:04.392Z,2.17
2022-12-05T10:22:59.404Z,1.48
2022-12-05T10:25:27.536Z,0.93
2022-12-05T10:27:57.781Z,0.80
2022-12-05T10:30:26.077Z,0.77
2022-12-05T10:33:06.352Z,0.52
2022-12-05T10:35:40.475Z,1.50
2022-12-05T10:38:11.681Z,1.40
2022-12-05T10:40:45.036Z,1.02
2022-12-05T10:43:14.632Z,0.88
2022-12-05T10:45:46.287Z,1.23
2022-12-05T10:48:14.872Z,1.40
2022-12-05T10:50:42.850Z,1.40
2022-12-05T10:53:14.079Z,1.23
2022-12-05T10:55:59.909Z,1.20
2022-12-05T10:58:28.795Z,1.10
2022-12-05T11:01:09.522Z,1.10
2022-12-05T11:03:38.616Z,1.10
2022-12-05T11:06:23.962Z,1.25
2022-12-05T11:09:04.291Z,1.05
2022-12-05T11:11:33.406Z,1.08
2022-12-05T11:14:05.870Z,1.52
2022-12-05T11:16:38.496Z,1.20
2022-12-05T11:19:27.804Z,1.20
2022-12-05T11:21:55.061Z,0.88
2022-12-05T11:24:38.095Z,1.33
2022-12-05T11:27:16.552Z,2.33
2022-12-05T11:29:45.089Z,2.72
2022-12-05T11:32:22.786Z,2.10
2022-12-05T11:35:09.581Z,1.50
2022-12-05T11:37:58.030Z,2.00
2022-12-05T11:40:50.673Z,1.90
2022-12-05T11:43:29.212Z,1.40
2022-12-05T11:46:26.609Z,1.65
2022-12-05T11:49:03.854Z,1.83
2022-12-05T11:51:43.602Z,1.77
2022-12-05T11:54:19.810Z,1.70
2022-12-05T11:57:15.499Z,1.10
2022-12-05T12:00:01.213Z,1.13
2022-12-05T12:02:57.077Z,1.00
2022-12-05T12:05:38.737Z,1.20
2022-12-05T12:08:25.304Z,1.10
2022-12-05T12:10:57.633Z,1.05
2022-12-05T12:13:42.784Z,1.05
2022-12-05T12:16:12.201Z,1.10
2022-12-05T12:18:53.997Z,0.93
2022-12-05T12:21:57.670Z,1.10
2022-12-05T12:24:26.993Z,0.95
2022-12-05T12:27:16.707Z,0.82
2022-12-05T12:29:58.446Z,1.10
2022-12-05T12:32:50.798Z,1.00
2022-12-05T12:35:17.555Z,0.90
2022-12-05T12:37:53.381Z,1.00
2022-12-05T12:40:19.836Z,1.10
2022-12-05T12:43:05.434Z,0.80
2022-12-05T12:45:54.485Z,1.30
2022-12-05T12:48:53.629Z,1.52
2022-12-05T12:51:20.252Z,1.55
2022-12-05T12:54:01.825Z,1.40
2022-12-05T12:56:38.499Z,1.45
2022-12-05T12:59:30.909Z,1.20
2022-12-05T13:02:05.151Z,1.40
2022-12-05T13:04:42.768Z,1.50
2022-12-05T13:07:14.067Z,1.80
2022-12-05T13:09:51.687Z,1.95
2022-12-05T13:12:23.093Z,1.75
2022-12-05T13:14:53.190Z,1.40
2022-12-05T13:17:21.717Z,1.52
2022-12-05T13:19:50.832Z,1.80
2022-12-05T13:22:20.086Z,1.65
2022-12-05T13:24:49.963Z,2.17
2022-12-05T13:27:18.551Z,2.33
2022-12-05T13:29:54.994Z,1.90
2022-12-05T13:32:31.354Z,2.15
2022-12-05T13:35:08.636Z,2.40
2022-12-05T13:37:54.634Z,2.03
2022-12-05T13:40:54.011Z,2.22
2022-12-05T13:43:24.155Z,2.58
2022-12-05T13:45:59.754Z,2.00
2022-12-05T13:48:27.889Z,2.20
2022-12-05T13:50:59.272Z,1.88
2022-12-05T13:53:35.398Z,1.77
2022-12-05T13:56:06.907Z,1.92
2022-12-05T13:58:44.810Z,1.30
2022-12-05T14:01:26.707Z,1.50
2022-12-05T14:04:03.030Z,1.70
2022-12-05T14:06:35.393Z,1.25
2022-12-05T14:09:02.703Z,1.30
2022-12-05T14:11:29.371Z,1.20
2022-12-05T14:14:00.739Z,1.10
2022-12-05T14:16:30.640Z,1.15
2022-12-05T14:19:12.262Z,1.40
2022-12-05T14:21:41.746Z,1.50
2022-12-05T14:26:59.929Z,1.63
2022-12-05T14:29:39.090Z,1.42
2022-12-05T14:32:35.924Z,1.50
2022-12-05T14:35:24.707Z,1.38
2022-12-05T14:38:01.734Z,1.20
2022-12-05T14:40:35.548Z,1.00
2022-12-05T14:43:05.093Z,1.33
2022-12-05T14:48:01.312Z,1.10
2022-12-05T14:50:34.807Z,0.80
2022-12-05T14:53:32.517Z,1.05
2022-12-05T14:56:06.537Z,1.30
2022-12-05T14:58:44.722Z,1.20
2022-12-05T15:01:24.379Z,1.13
2022-12-05T15:04:03.078Z,1.17
2022-12-05T15:06:30.447Z,1.43
2022-12-05T15:09:14.623Z,1.00
2022-12-05T15:11:44.062Z,0.93
2022-12-05T15:14:20.011Z,1.55
2022-12-05T15:16:47.108Z,0.98
2022-12-05T15:19:19.228Z,1.23
2022-12-05T15:21:56.686Z,1.30
2022-12-05T15:24:23.423Z,1.13
2022-12-05T15:26:57.781Z,1.40
2022-12-05T15:29:33.671Z,1.40
2022-12-05T15:32:14.461Z,1.30
2022-12-05T15:35:06.472Z,1.70
2022-12-05T15:37:47.284Z,1.98
2022-12-05T15:40:17.634Z,1.88
2022-12-05T15:42:46.533Z,1.98
2022-12-05T15:45:15.934Z,2.03
2022-12-05T15:47:54.492Z,2.25
2022-12-05T15:50:39.501Z,2.00
2022-12-05T15:53:13.527Z,1.92
2022-12-05T15:55:49.269Z,1.90
2022-12-05T15:58:32.100Z,1.70
2022-12-05T16:01:09.752Z,1.48
2022-12-05T16:04:05.269Z,2.88
2022-12-05T16:06:37.779Z,2.05
2022-12-05T16:09:11.780Z,2.15
2022-12-05T16:11:38.651Z,2.50
2022-12-05T16:14:07.422Z,2.15
2022-12-05T16:16:36.481Z,2.03
2022-12-05T16:19:15.665Z,2.20
2022-12-05T16:21:47.392Z,1.77
2022-12-05T16:24:29.910Z,1.60
2022-12-05T16:27:02.894Z,1.50
2022-12-05T16:29:31.674Z,1.58
2022-12-05T16:32:00.161Z,1.42
2022-12-05T16:34:28.139Z,1.98
2022-12-05T16:36:56.204Z,2.30
2022-12-05T16:39:23.950Z,1.95
2022-12-05T16:41:50.686Z,2.33
2022-12-05T16:44:48.221Z,1.80
2022-12-05T16:47:40.750Z,2.03
2022-12-05T16:50:23.665Z,1.65
2022-12-05T16:52:50.866Z,1.98
2022-12-05T16:55:17.368Z,1.88
2022-12-05T16:57:43.879Z,1.70
2022-12-05T17:00:16.462Z,2.10
2022-12-05T17:02:43.029Z,2.17
2022-12-05T17:05:13.600Z,1.98
2022-12-05T17:07:40.169Z,1.92
2022-12-05T17:10:07.635Z,2.00
2022-12-05T17:12:34.420Z,2.00
2022-12-05T17:15:01.171Z,1.55
2022-12-05T17:17:27.898Z,1.73
2022-12-05T17:19:54.629Z,2.50
2022-12-05T17:22:21.223Z,3.28
2022-12-05T17:24:47.706Z,2.00
2022-12-05T17:27:14.372Z,2.28
2022-12-05T17:29:40.941Z,2.05
2022-12-05T17:32:09.034Z,2.08
2022-12-05T17:34:35.598Z,1.83
2022-12-05T17:37:02.635Z,2.30
2022-12-05T17:39:29.203Z,2.00
2022-12-05T17:41:56.269Z,2.70
2022-12-05T17:44:22.910Z,2.90
2022-12-05T17:46:49.495Z,2.67
2022-12-05T17:49:17.882Z,2.90
2022-12-05T17:52:13.504Z,2.55
2022-12-05T17:54:31.143Z,2.17
2022-12-05T17:56:57.613Z,2.20
2022-12-05T17:59:24.130Z,1.83
2022-12-05T18:01:50.683Z,1.52
2022-12-05T18:04:22.667Z,1.50
2022-12-05T18:06:49.481Z,1.67
2022-12-05T18:09:16.095Z,1.50
2022-12-05T18:11:42.978Z,1.30
2022-12-05T18:14:10.391Z,1.38
2022-12-05T18:16:37.124Z,2.03
2022-12-05T18:19:03.966Z,1.30
2022-12-05T18:21:30.563Z,1.23
2022-12-05T18:23:57.742Z,1.33
2022-12-05T18:26:24.643Z,1.35
2022-12-05T18:28:52.192Z,1.30
2022-12-05T18:31:19.147Z,1.40
2022-12-05T18:33:46.665Z,1.30
2022-12-05T18:36:15.944Z,1.38
2022-12-05T18:38:43.467Z,1.30
2022-12-05T18:41:10.368Z,1.30
2022-12-05T18:43:37.008Z,1.15
2022-12-05T18:46:04.918Z,1.27
2022-12-05T18:48:42.727Z,1.00
2022-12-05T18:51:17.258Z,1.30
2022-12-05T18:53:51.931Z,1.52
2022-12-05T18:56:22.629Z,1.50
2022-12-05T18:59:13.125Z,1.17
2022-12-05T19:04:12.272Z,1.27
2022-12-05T19:06:39.997Z,1.27
2022-12-05T19:09:09.397Z,1.85
2022-12-05T19:11:36.148Z,1.88
2022-12-05T19:14:04.537Z,1.50
2022-12-05T19:16:33.395Z,1.40
2022-12-05T19:19:01.415Z,1.38
2022-12-05T19:21:29.808Z,1.60
2022-12-05T19:23:56.619Z,1.50
2022-12-05T19:26:23.403Z,1.75
2022-12-05T19:28:53.165Z,1.92
2022-12-05T19:31:22.402Z,1.80
2022-12-05T19:33:54.069Z,1.60
2022-12-05T19:36:25.422Z,1.65
2022-12-05T19:38:53.139Z,1.75
2022-12-05T19:41:22.220Z,2.03
2022-12-05T19:43:48.968Z,1.55
2022-12-05T19:46:19.654Z,1.35
2022-12-05T19:48:46.791Z,1.33
2022-12-05T19:51:14.015Z,1.80
2022-12-05T19:53:42.091Z,1.77
2022-12-05T19:56:12.657Z,1.52
2022-12-05T19:58:39.422Z,1.38
2022-12-05T20:01:14.522Z,1.60
2022-12-05T20:03:42.116Z,1.27
2022-12-05T20:06:09.894Z,1.60
2022-12-05T20:08:37.776Z,1.50
2022-12-05T20:11:22.639Z,1.17
2022-12-05T20:13:49.202Z,1.50
2022-12-05T20:16:18.556Z,1.38
2022-12-05T20:18:45.838Z,1.02
2022-12-05T20:21:14.143Z,1.50
2022-12-05T20:23:40.800Z,1.30
2022-12-05T20:26:11.767Z,1.25
2022-12-05T20:28:39.025Z,1.00
2022-12-05T20:31:09.248Z,1.17
2022-12-05T20:33:36.502Z,1.25
2022-12-05T20:36:14.423Z,1.00
2022-12-05T20:38:41.720Z,1.30
2022-12-05T20:41:11.820Z,1.17
2022-12-05T20:43:38.641Z,1.13
2022-12-05T20:46:07.487Z,1.27
2022-12-05T20:48:34.977Z,1.35
2022-12-05T20:51:09.479Z,1.30
2022-12-05T20:53:38.172Z,1.30
2022-12-05T20:56:05.925Z,1.40
2022-12-05T20:58:33.228Z,1.35
2022-12-05T21:01:04.309Z,1.60
2022-12-05T21:03:31.058Z,1.77
2022-12-05T21:05:57.983Z,1.42
2022-12-05T21:08:24.577Z,1.42
2022-12-05T21:10:52.667Z,1.20
2022-12-05T21:13:19.871Z,1.33
